createdAt,value
2023-11-23T00:02:20.142Z,97296.66
2023-11-23T00:04:46.981Z,97306.72
2023-11-23T00:07:14.300Z,97292.84
2023-11-23T00:09:41.015Z,97290.88
2023-11-23T00:12:08.068Z,97299.28
2023-11-23T00:14:34.790Z,97298.28
2023-11-23T00:17:01.606Z,97293.25
2023-11-23T00:19:28.375Z,97287.81
2023-11-23T00:21:55.037Z,97278.59
2023-11-23T00:24:21.704Z,97270.00
2023-11-23T00:26:48.456Z,97271.00
2023-11-23T00:29:15.385Z,97276.41
2023-11-23T00:31:42.909Z,97260.66
2023-11-23T00:34:09.765Z,97259.59
2023-11-23T00:36:39.024Z,97268.69
2023-11-23T00:39:06.496Z,97256.25
2023-11-23T00:41:33.382Z,97254.84
2023-11-23T00:44:00.178Z,97260.66
2023-11-23T00:46:27.565Z,97263.66
2023-11-23T00:48:56.071Z,97261.47
2023-11-23T00:51:22.804Z,97251.94
2023-11-23T00:53:49.655Z,97264.13
2023-11-23T00:56:18.250Z,97259.47
2023-11-23T00:58:46.135Z,97271.28
2023-11-23T01:01:19.486Z,97267.16
2023-11-23T01:03:46.393Z,97269.25
2023-11-23T01:06:13.364Z,97269.53
2023-11-23T01:08:40.162Z,97276.94
2023-11-23T01:11:07.074Z,97264.84
2023-11-23T01:13:34.140Z,97263.28
2023-11-23T01:16:00.852Z,97260.59
2023-11-23T01:18:27.656Z,97266.00
2023-11-23T01:20:54.630Z,97262.81
2023-11-23T01:23:21.380Z,97267.75
2023-11-23T01:25:48.093Z,97269.59
2023-11-23T01:28:14.915Z,97258.22
2023-11-23T01:30:41.661Z,97268.06
2023-11-23T01:33:09.137Z,97272.78
2023-11-23T01:35:35.935Z,97259.28
2023-11-23T01:38:02.664Z,97274.63
2023-11-23T01:40:30.836Z,97269.44
2023-11-23T01:43:11.445Z,97268.63
2023-11-23T01:45:38.758Z,97265.81
2023-11-23T01:48:06.297Z,97261.41
2023-11-23T01:50:35.246Z,97262.38
2023-11-23T01:53:03.017Z,97272.47
2023-11-23T01:55:29.771Z,97284.16
2023-11-23T01:57:59.225Z,97290.88
2023-11-23T02:00:26.955Z,97292.78
2023-11-23T02:02:54.120Z,97306.13
2023-11-23T02:05:24.752Z,97316.16
2023-11-23T02:07:51.439Z,97324.03
2023-11-23T02:10:20.145Z,97324.13
2023-11-23T02:12:53.188Z,97332.53
2023-11-23T02:15:20.277Z,97337.16
2023-11-23T02:17:48.221Z,97340.44
2023-11-23T02:20:15.252Z,97351.03
2023-11-23T02:22:42.103Z,97352.53
2023-11-23T02:25:09.034Z,97353.84
2023-11-23T02:27:36.811Z,97366.00
2023-11-23T02:30:05.009Z,97365.00
2023-11-23T02:32:31.760Z,97368.63
2023-11-23T02:34:58.584Z,97371.78
2023-11-23T02:37:25.256Z,97366.09
2023-11-23T02:39:51.985Z,97379.47
2023-11-23T02:42:18.822Z,97377.63
2023-11-23T02:44:45.585Z,97381.66
2023-11-23T02:47:12.352Z,97389.91
2023-11-23T02:49:39.053Z,97383.91
2023-11-23T02:52:06.251Z,97376.78
2023-11-23T02:54:33.026Z,97371.06
2023-11-23T02:57:00.254Z,97373.72
2023-11-23T02:59:27.041Z,97373.75
2023-11-23T03:01:53.832Z,97361.53
2023-11-23T03:04:20.671Z,97355.38
2023-11-23T03:06:47.583Z,97336.47
2023-11-23T03:09:14.395Z,97334.00
2023-11-23T03:11:42.259Z,97337.25
2023-11-23T03:14:09.774Z,97329.00
2023-11-23T03:16:36.657Z,97343.31
2023-11-23T03:19:03.583Z,97348.84
2023-11-23T03:21:30.647Z,97336.13
2023-11-23T03:23:57.615Z,97341.28
2023-11-23T03:26:24.480Z,97340.47
2023-11-23T03:28:51.164Z,97343.44
2023-11-23T03:31:17.841Z,97334.56
2023-11-23T03:33:45.198Z,97339.75
2023-11-23T03:36:12.032Z,97342.53
2023-11-23T03:38:38.861Z,97344.53
2023-11-23T03:41:05.903Z,97338.59
2023-11-23T03:43:32.695Z,97345.03
2023-11-23T03:45:59.439Z,97344.66
2023-11-23T03:48:26.994Z,97346.53
2023-11-23T03:50:53.878Z,97345.53
2023-11-23T03:53:20.663Z,97332.31
2023-11-23T03:55:47.474Z,97335.72
2023-11-23T03:58:14.260Z,97333.94
2023-11-23T04:00:41.620Z,97335.31
2023-11-23T04:03:09.292Z,97319.63
2023-11-23T04:05:36.078Z,97319.38
2023-11-23T04:08:03.023Z,97316.34
2023-11-23T04:10:29.701Z,97325.09
2023-11-23T04:12:56.412Z,97319.34
2023-11-23T04:15:23.401Z,97327.13
2023-11-23T04:17:50.217Z,97324.88
2023-11-23T04:20:17.293Z,97324.03
2023-11-23T04:22:44.038Z,97334.69
2023-11-23T04:25:10.892Z,97339.56
2023-11-23T04:27:37.632Z,97339.28
2023-11-23T04:30:05.915Z,97343.19
2023-11-23T04:32:34.446Z,97334.72
2023-11-23T04:35:01.259Z,97320.72
2023-11-23T04:37:29.027Z,97322.34
2023-11-23T04:39:55.791Z,97325.59
2023-11-23T04:42:22.563Z,97333.31
2023-11-23T04:44:49.317Z,97331.34
2023-11-23T04:47:16.097Z,97328.59
2023-11-23T04:49:42.912Z,97329.72
2023-11-23T04:52:09.629Z,97338.50
2023-11-23T04:54:36.473Z,97339.00
2023-11-23T04:57:03.317Z,97343.84
2023-11-23T04:59:29.968Z,97339.25
2023-11-23T05:01:57.219Z,97334.16
2023-11-23T05:04:24.030Z,97338.91
2023-11-23T05:06:50.927Z,97337.63
2023-11-23T05:09:18.666Z,97343.78
2023-11-23T05:11:46.445Z,97351.28
2023-11-23T05:14:13.205Z,97349.44
2023-11-23T05:16:40.088Z,97356.00
2023-11-23T05:19:06.856Z,97356.44
2023-11-23T05:21:34.195Z,97349.28
2023-11-23T05:24:02.716Z,97352.28
2023-11-23T05:26:31.216Z,97364.19
2023-11-23T05:28:57.924Z,97364.66
2023-11-23T05:31:24.669Z,97358.03
2023-11-23T05:33:51.393Z,97367.06
2023-11-23T05:36:18.407Z,97366.00
2023-11-23T05:38:45.171Z,97360.13
2023-11-23T05:41:11.828Z,97363.84
2023-11-23T05:43:38.562Z,97359.81
2023-11-23T05:46:05.622Z,97357.75
2023-11-23T05:48:32.402Z,97364.88
2023-11-23T05:50:59.222Z,97368.94
2023-11-23T05:53:25.952Z,97368.63
2023-11-23T05:55:52.611Z,97355.59
2023-11-23T05:58:19.314Z,97361.16
2023-11-23T06:00:48.614Z,97359.06
2023-11-23T06:03:17.125Z,97362.19
2023-11-23T06:05:43.870Z,97352.88
2023-11-23T06:08:10.628Z,97358.22
2023-11-23T06:10:38.744Z,97362.56
2023-11-23T06:13:05.547Z,97367.41
2023-11-23T06:15:32.410Z,97368.47
2023-11-23T06:18:07.684Z,97365.25
2023-11-23T06:20:40.576Z,97368.16
2023-11-23T06:23:07.298Z,97377.41
2023-11-23T06:25:34.038Z,97367.69
2023-11-23T06:28:12.486Z,97375.88
2023-11-23T06:30:42.605Z,97374.63
2023-11-23T06:33:09.841Z,97378.56
2023-11-23T06:35:36.708Z,97379.28
2023-11-23T06:38:04.558Z,97383.09
2023-11-23T06:40:31.825Z,97381.84
2023-11-23T06:42:58.486Z,97374.47
2023-11-23T06:45:26.330Z,97379.59
2023-11-23T06:47:53.362Z,97392.78
2023-11-23T06:50:20.156Z,97379.25
2023-11-23T06:52:46.881Z,97382.16
2023-11-23T06:55:16.596Z,97378.53
2023-11-23T06:57:48.305Z,97379.13
2023-11-23T07:00:25.256Z,97388.50
2023-11-23T07:02:53.922Z,97386.47
2023-11-23T07:05:20.802Z,97394.75
2023-11-23T07:07:48.750Z,97397.13
2023-11-23T07:10:19.344Z,97398.63
2023-11-23T07:12:48.014Z,97393.94
2023-11-23T07:15:15.519Z,97392.03
2023-11-23T07:17:44.107Z,97387.06
2023-11-23T07:20:14.053Z,97392.06
2023-11-23T07:22:41.150Z,97387.47
2023-11-23T07:25:12.085Z,97388.69
2023-11-23T07:27:39.329Z,97382.09
2023-11-23T07:30:08.230Z,97381.38
2023-11-23T07:32:36.315Z,97379.50
2023-11-23T07:35:04.487Z,97379.97
2023-11-23T07:37:32.453Z,97383.09
2023-11-23T07:39:59.240Z,97390.72
2023-11-23T07:42:26.886Z,97399.91
2023-11-23T07:44:53.939Z,97392.00
2023-11-23T07:47:21.194Z,97402.91
2023-11-23T07:49:48.058Z,97402.97
2023-11-23T07:52:15.478Z,97404.84
2023-11-23T07:54:42.352Z,97410.66
2023-11-23T07:57:09.213Z,97418.38
2023-11-23T07:59:37.940Z,97424.00
2023-11-23T08:02:06.277Z,97419.66
2023-11-23T08:04:33.227Z,97433.31
2023-11-23T08:07:00.616Z,97429.63
2023-11-23T08:09:29.266Z,97434.28
2023-11-23T08:11:57.511Z,97435.38
2023-11-23T08:14:24.785Z,97428.47
2023-11-23T08:16:51.616Z,97434.22
2023-11-23T08:19:19.128Z,97426.50
2023-11-23T08:21:49.194Z,97426.41
2023-11-23T08:24:18.718Z,97423.22
2023-11-23T08:26:45.824Z,97430.31
2023-11-23T08:29:13.150Z,97423.00
2023-11-23T08:31:41.105Z,97421.69
2023-11-23T08:34:09.256Z,97421.69
2023-11-23T08:36:37.414Z,97414.00
2023-11-23T08:39:06.522Z,97416.22
2023-11-23T08:41:33.496Z,97428.00
2023-11-23T08:44:01.255Z,97419.97
2023-11-23T08:46:28.715Z,97419.03
2023-11-23T08:48:55.966Z,97413.94
2023-11-23T08:51:23.797Z,97419.81
2023-11-23T08:53:51.564Z,97411.31
2023-11-23T08:56:18.676Z,97412.81
2023-11-23T08:58:45.628Z,97417.56
2023-11-23T09:01:12.576Z,97418.09
2023-11-23T09:03:39.710Z,97413.13
2023-11-23T09:06:07.032Z,97422.22
2023-11-23T09:08:33.861Z,97418.44
2023-11-23T09:11:00.569Z,97416.09
2023-11-23T09:13:27.811Z,97417.03
2023-11-23T09:15:55.317Z,97403.88
2023-11-23T09:18:23.117Z,97410.06
2023-11-23T09:20:52.465Z,97413.28
2023-11-23T09:23:19.552Z,97401.06
2023-11-23T09:25:47.105Z,97402.22
2023-11-23T09:28:14.554Z,97403.69
2023-11-23T09:30:42.490Z,97401.22
2023-11-23T09:33:11.222Z,97402.19
2023-11-23T09:35:39.743Z,97398.44
2023-11-23T09:38:10.071Z,97391.53
2023-11-23T09:40:37.548Z,97395.47
2023-11-23T09:43:04.359Z,97397.50
2023-11-23T09:45:31.944Z,97400.44
2023-11-23T09:48:00.381Z,97390.88
2023-11-23T09:50:34.055Z,97390.78
2023-11-23T09:53:04.269Z,97396.75
2023-11-23T09:55:32.146Z,97395.69
2023-11-23T09:57:58.840Z,97395.88
2023-11-23T10:00:26.421Z,97401.50
2023-11-23T10:02:58.188Z,97396.34
2023-11-23T10:05:25.539Z,97389.34
2023-11-23T10:07:55.045Z,97387.38
2023-11-23T10:10:22.683Z,97380.28
2023-11-23T10:12:50.837Z,97376.81
2023-11-23T10:15:17.844Z,97364.09
2023-11-23T10:17:44.740Z,97369.34
2023-11-23T10:20:18.887Z,97353.06
2023-11-23T10:22:50.314Z,97345.19
2023-11-23T10:25:33.398Z,97334.09
2023-11-23T10:28:01.153Z,97340.63
2023-11-23T10:30:29.329Z,97342.94
2023-11-23T10:33:00.547Z,97344.31
2023-11-23T10:35:37.137Z,97340.91
2023-11-23T10:38:04.726Z,97340.41
2023-11-23T10:40:33.013Z,97334.56
2023-11-23T10:43:02.641Z,97339.34
2023-11-23T10:45:32.623Z,97345.22
2023-11-23T10:48:00.121Z,97340.63
2023-11-23T10:50:28.094Z,97338.56
2023-11-23T10:52:58.990Z,97337.28
2023-11-23T10:55:26.076Z,97334.34
2023-11-23T10:57:59.155Z,97336.22
2023-11-23T11:00:27.809Z,97324.09
2023-11-23T11:02:58.577Z,97319.38
2023-11-23T11:05:29.694Z,97315.25
2023-11-23T11:08:06.266Z,97301.19
2023-11-23T11:10:38.849Z,97291.88
2023-11-23T11:13:12.380Z,97264.09
2023-11-23T11:15:53.470Z,97237.09
2023-11-23T11:18:32.965Z,97226.31
2023-11-23T11:21:22.093Z,97200.63
2023-11-23T11:23:53.479Z,97195.34
2023-11-23T11:26:20.444Z,97182.47
2023-11-23T11:28:55.877Z,97175.75
2023-11-23T11:31:29.859Z,97170.53
2023-11-23T11:33:56.585Z,97154.09
2023-11-23T11:36:28.471Z,97155.53
2023-11-23T11:39:02.327Z,97134.22
2023-11-23T11:41:31.241Z,97128.06
2023-11-23T11:43:59.445Z,97117.00
2023-11-23T11:46:30.156Z,97107.00
2023-11-23T11:49:00.072Z,97102.81
2023-11-23T11:51:27.887Z,97099.38
2023-11-23T11:53:55.875Z,97074.88
2023-11-23T11:56:23.510Z,97085.13
2023-11-23T11:58:50.870Z,97081.88
2023-11-23T12:01:18.757Z,97077.63
2023-11-23T12:03:49.260Z,97068.50
2023-11-23T12:06:19.249Z,97075.00
2023-11-23T12:08:51.140Z,97071.31
2023-11-23T12:11:28.094Z,97066.72
2023-11-23T12:13:57.313Z,97065.78
2023-11-23T12:16:34.291Z,97056.75
2023-11-23T12:19:01.036Z,97048.00
2023-11-23T12:21:29.361Z,97045.34
2023-11-23T12:23:58.825Z,97031.78
2023-11-23T12:26:25.896Z,97046.34
2023-11-23T12:28:52.622Z,97049.72
2023-11-23T12:31:19.395Z,97046.22
2023-11-23T12:33:46.180Z,97047.03
2023-11-23T12:36:14.047Z,97056.59
2023-11-23T12:38:40.784Z,97048.63
2023-11-23T12:41:09.104Z,97045.03
2023-11-23T12:43:37.008Z,97028.81
2023-11-23T12:46:03.873Z,97025.44
2023-11-23T12:48:31.132Z,97029.25
2023-11-23T12:51:00.230Z,97030.47
2023-11-23T12:53:27.872Z,97027.13
2023-11-23T12:55:55.918Z,97019.81
2023-11-23T12:58:23.618Z,97021.81
2023-11-23T13:00:50.377Z,97014.75
2023-11-23T13:03:17.376Z,97009.47
2023-11-23T13:05:46.535Z,97000.00
2023-11-23T13:08:13.285Z,97005.28
2023-11-23T13:10:42.181Z,96998.03
2023-11-23T13:13:10.122Z,96981.28
2023-11-23T13:15:37.100Z,96988.03
2023-11-23T13:18:05.670Z,96973.50
2023-11-23T13:20:35.580Z,96967.38
2023-11-23T13:23:04.353Z,96968.25
2023-11-23T13:25:31.233Z,96954.09
2023-11-23T13:27:58.277Z,96953.63
2023-11-23T13:30:32.510Z,96948.75
2023-11-23T13:32:59.447Z,96930.19
2023-11-23T13:35:28.493Z,96936.59
2023-11-23T13:37:55.355Z,96930.53
2023-11-23T13:40:22.288Z,96928.25
2023-11-23T13:42:49.103Z,96945.81
2023-11-23T13:45:18.164Z,96963.84
2023-11-23T13:47:46.276Z,96973.50
2023-11-23T13:50:15.135Z,96976.53
2023-11-23T13:52:44.839Z,96981.06
2023-11-23T13:55:11.928Z,96990.19
2023-11-23T13:57:38.856Z,96994.84
2023-11-23T14:00:13.805Z,97001.28
2023-11-23T14:02:41.348Z,97005.06
2023-11-23T14:05:08.947Z,97002.31
2023-11-23T14:07:35.638Z,97017.16
2023-11-23T14:10:02.391Z,97011.47
2023-11-23T14:12:29.195Z,97021.72
2023-11-23T14:14:56.093Z,97031.50
2023-11-23T14:17:23.788Z,97031.81
2023-11-23T14:19:52.687Z,97027.03
2023-11-23T14:22:20.140Z,97036.63
2023-11-23T14:24:47.692Z,97035.69
2023-11-23T14:27:14.740Z,97039.97
2023-11-23T14:29:42.558Z,97039.53
2023-11-23T14:32:09.447Z,97034.34
2023-11-23T14:34:44.149Z,97043.88
2023-11-23T14:37:13.021Z,97035.75
2023-11-23T14:39:40.421Z,97029.66
2023-11-23T14:42:08.056Z,97038.38
2023-11-23T14:44:35.218Z,97027.50
2023-11-23T14:47:01.983Z,97027.59
2023-11-23T14:49:31.866Z,97028.19
2023-11-23T14:51:58.719Z,97027.47
2023-11-23T14:54:34.612Z,97032.94
2023-11-23T14:57:05.575Z,97027.25
2023-11-23T14:59:32.393Z,97037.38
2023-11-23T15:01:59.334Z,97031.53
2023-11-23T15:04:26.226Z,97030.72
2023-11-23T15:06:52.968Z,97036.44
2023-11-23T15:09:19.993Z,97043.03
2023-11-23T15:11:48.780Z,97036.47
2023-11-23T15:14:15.823Z,97047.16
2023-11-23T15:16:42.770Z,97042.38
2023-11-23T15:19:11.425Z,97046.44
2023-11-23T15:21:38.108Z,97052.78
2023-11-23T15:24:05.304Z,97060.88
2023-11-23T15:26:32.105Z,97056.06
2023-11-23T15:29:00.592Z,97056.16
2023-11-23T15:31:27.415Z,97062.47
2023-11-23T15:33:54.441Z,97062.34
2023-11-23T15:36:21.209Z,97058.06
2023-11-23T15:38:49.623Z,97062.31
2023-11-23T15:41:18.806Z,97043.84
2023-11-23T15:43:45.544Z,97031.94
2023-11-23T15:46:13.505Z,97015.97
2023-11-23T15:48:40.636Z,97019.72
2023-11-23T15:51:07.409Z,97018.06
2023-11-23T15:53:34.104Z,97014.59
2023-11-23T15:56:00.957Z,97008.00
2023-11-23T15:58:28.212Z,97011.09
2023-11-23T16:00:54.923Z,97015.16
2023-11-23T16:03:21.827Z,97020.09
2023-11-23T16:05:49.745Z,97011.63
2023-11-23T16:08:16.523Z,97013.63
2023-11-23T16:10:43.513Z,97010.47
2023-11-23T16:13:11.252Z,97014.00
2023-11-23T16:15:38.059Z,97014.50
2023-11-23T16:18:04.977Z,97021.97
2023-11-23T16:20:31.851Z,97026.75
2023-11-23T16:22:58.568Z,97028.31
2023-11-23T16:25:27.529Z,97033.50
2023-11-23T16:27:54.400Z,97026.38
2023-11-23T16:30:21.356Z,97014.50
2023-11-23T16:32:48.107Z,97020.69
2023-11-23T16:35:15.100Z,97016.34
2023-11-23T16:37:41.843Z,97015.78
2023-11-23T16:40:11.835Z,97007.78
2023-11-23T16:42:43.025Z,97015.16
2023-11-23T16:45:10.826Z,97012.41
2023-11-23T16:47:37.634Z,97011.34
2023-11-23T16:50:04.688Z,97019.06
2023-11-23T16:52:31.468Z,97028.22
2023-11-23T16:54:58.287Z,97029.34
2023-11-23T16:57:25.201Z,97025.50
2023-11-23T16:59:51.970Z,97018.53
2023-11-23T17:02:19.136Z,97026.22
2023-11-23T17:04:51.007Z,97019.78
2023-11-23T17:07:19.747Z,97013.91
2023-11-23T17:09:47.919Z,97010.66
2023-11-23T17:12:14.764Z,97014.91
2023-11-23T17:14:43.176Z,97028.28
2023-11-23T17:17:09.895Z,97035.16
2023-11-23T17:19:37.161Z,97046.94
2023-11-23T17:22:04.893Z,97044.44
2023-11-23T17:24:31.686Z,97039.38
2023-11-23T17:26:58.474Z,97031.75
2023-11-23T17:29:25.242Z,97040.69
2023-11-23T17:31:58.467Z,97042.63
2023-11-23T17:34:27.270Z,97048.53
2023-11-23T17:36:54.419Z,97045.59
2023-11-23T17:39:25.666Z,97041.38
2023-11-23T17:41:53.224Z,97046.63
2023-11-23T17:44:20.602Z,97044.94
2023-11-23T17:46:47.617Z,97047.00
2023-11-23T17:49:15.303Z,97038.50
2023-11-23T17:51:44.763Z,97041.91
2023-11-23T17:54:12.912Z,97034.06
2023-11-23T17:56:42.827Z,97036.09
2023-11-23T18:01:41.943Z,97032.50
2023-11-23T18:04:08.997Z,97024.16
2023-11-23T18:06:36.027Z,97025.41
2023-11-23T18:09:02.834Z,97025.56
2023-11-23T18:11:29.634Z,97028.38
2023-11-23T18:13:56.386Z,97026.44
2023-11-23T18:16:23.385Z,97033.75
2023-11-23T18:18:50.145Z,97019.94
2023-11-23T18:21:17.001Z,97027.94
2023-11-23T18:23:43.984Z,97036.72
2023-11-23T18:26:11.302Z,97036.34
2023-11-23T18:28:38.164Z,97031.25
2023-11-23T18:31:05.491Z,97035.53
2023-11-23T18:33:36.044Z,97032.00
2023-11-23T18:36:04.012Z,97038.63
2023-11-23T18:38:31.866Z,97028.47
2023-11-23T18:40:58.566Z,97019.66
2023-11-23T18:43:26.841Z,97016.75
2023-11-23T18:45:53.731Z,97007.41
2023-11-23T18:48:22.523Z,96997.38
2023-11-23T18:50:49.520Z,96986.38
2023-11-23T18:53:20.198Z,96986.56
2023-11-23T18:55:48.393Z,96972.78
2023-11-23T18:58:15.156Z,96968.34
2023-11-23T19:00:42.006Z,96965.94
2023-11-23T19:03:09.316Z,96970.09
2023-11-23T19:05:36.673Z,96968.50
2023-11-23T19:08:03.374Z,96971.91
2023-11-23T19:10:30.188Z,96969.06
2023-11-23T19:13:03.928Z,96954.22
2023-11-23T19:15:33.525Z,96963.28
2023-11-23T19:18:00.671Z,96962.06
2023-11-23T19:20:27.723Z,96964.44
2023-11-23T19:22:54.787Z,96954.22
2023-11-23T19:25:26.144Z,96948.09
2023-11-23T19:27:55.333Z,96942.47
2023-11-23T19:30:24.978Z,96934.41
2023-11-23T19:32:52.943Z,96929.97
2023-11-23T19:35:21.169Z,96923.53
2023-11-23T19:37:53.222Z,96919.63
2023-11-23T19:40:24.507Z,96908.47
2023-11-23T19:42:51.856Z,96921.47
2023-11-23T19:45:19.597Z,96915.19
2023-11-23T19:47:46.612Z,96911.56
2023-11-23T19:50:13.769Z,96909.72
2023-11-23T19:52:44.032Z,96917.69
2023-11-23T19:55:11.530Z,96905.97
2023-11-23T19:57:38.442Z,96903.22
2023-11-23T20:00:08.171Z,96901.53
2023-11-23T20:02:35.538Z,96895.09
2023-11-23T20:05:02.658Z,96898.41
2023-11-23T20:07:33.795Z,96890.09
2023-11-23T20:10:00.553Z,96874.91
2023-11-23T20:12:28.698Z,96878.00
2023-11-23T20:14:55.572Z,96883.53
2023-11-23T20:17:23.039Z,96886.41
2023-11-23T20:19:50.217Z,96880.22
2023-11-23T20:22:18.834Z,96885.28
2023-11-23T20:24:45.644Z,96884.78
2023-11-23T20:27:12.713Z,96882.13
2023-11-23T20:29:39.472Z,96878.84
2023-11-23T20:32:07.428Z,96868.09
2023-11-23T20:34:34.360Z,96875.94
2023-11-23T20:37:01.188Z,96869.00
2023-11-23T20:39:32.206Z,96869.47
2023-11-23T20:41:59.374Z,96861.94
2023-11-23T20:44:26.102Z,96849.22
2023-11-23T20:46:53.080Z,96860.97
2023-11-23T20:49:19.877Z,96855.56
2023-11-23T20:51:47.033Z,96851.44
2023-11-23T20:54:13.804Z,96835.84
2023-11-23T20:56:40.881Z,96844.66
2023-11-23T20:59:08.048Z,96832.06
2023-11-23T21:01:35.051Z,96824.91
2023-11-23T21:04:02.295Z,96820.88
2023-11-23T21:06:30.624Z,96826.13
2023-11-23T21:08:57.791Z,96825.66
2023-11-23T21:11:24.588Z,96823.88
2023-11-23T21:13:51.314Z,96822.66
2023-11-23T21:16:19.536Z,96819.66
2023-11-23T21:18:46.411Z,96812.06
2023-11-23T21:21:13.625Z,96805.78
2023-11-23T21:23:40.511Z,96810.78
2023-11-23T21:26:07.605Z,96810.91
2023-11-23T21:28:35.653Z,96807.88
2023-11-23T21:31:03.434Z,96792.84
2023-11-23T21:33:30.315Z,96791.25
2023-11-23T21:35:57.109Z,96797.88
2023-11-23T21:38:23.798Z,96796.13
2023-11-23T21:40:50.504Z,96785.91
2023-11-23T21:43:17.198Z,96785.78
2023-11-23T21:45:44.017Z,96769.41
2023-11-23T21:48:10.952Z,96775.16
2023-11-23T21:50:37.988Z,96762.00
2023-11-23T21:53:04.967Z,96762.44
2023-11-23T21:55:34.904Z,96764.44
2023-11-23T21:58:03.640Z,96759.25
2023-11-23T22:00:30.341Z,96761.50
2023-11-23T22:02:57.098Z,96757.13
2023-11-23T22:05:23.904Z,96772.59
2023-11-23T22:07:50.654Z,96767.59
2023-11-23T22:10:18.226Z,96765.88
2023-11-23T22:12:45.184Z,96767.72
2023-11-23T22:15:12.589Z,96762.19
2023-11-23T22:17:39.607Z,96769.56
2023-11-23T22:20:07.063Z,96768.31
2023-11-23T22:22:34.054Z,96766.84
2023-11-23T22:25:00.935Z,96760.22
2023-11-23T22:27:29.412Z,96752.19
2023-11-23T22:29:56.831Z,96751.53
2023-11-23T22:32:26.928Z,96748.22
2023-11-23T22:34:54.828Z,96758.22
2023-11-23T22:37:21.829Z,96762.13
2023-11-23T22:39:49.386Z,96759.94
2023-11-23T22:42:16.724Z,96766.84
2023-11-23T22:44:43.743Z,96760.06
2023-11-23T22:47:10.561Z,96752.63
2023-11-23T22:49:37.252Z,96742.47
2023-11-23T22:52:05.462Z,96744.97
2023-11-23T22:54:33.588Z,96751.38
2023-11-23T22:57:01.072Z,96757.06
2023-11-23T22:59:27.744Z,96763.03
2023-11-23T23:01:54.659Z,96765.53
2023-11-23T23:04:22.109Z,96777.22
2023-11-23T23:06:48.920Z,96780.91
2023-11-23T23:09:17.116Z,96786.94
2023-11-23T23:11:44.341Z,96793.78
2023-11-23T23:14:11.006Z,96797.13
2023-11-23T23:16:37.763Z,96799.97
2023-11-23T23:19:04.713Z,96801.75
2023-11-23T23:21:32.638Z,96814.41
2023-11-23T23:23:59.640Z,96804.72
2023-11-23T23:26:26.445Z,96798.47
2023-11-23T23:28:53.245Z,96799.34
2023-11-23T23:31:20.006Z,96785.88
2023-11-23T23:33:46.814Z,96801.66
2023-11-23T23:36:13.589Z,96798.06
2023-11-23T23:38:40.589Z,96787.38
2023-11-23T23:41:07.350Z,96792.91
2023-11-23T23:43:34.045Z,96797.84
2023-11-23T23:46:01.660Z,96796.16
2023-11-23T23:48:28.985Z,96793.03
2023-11-23T23:50:55.733Z,96785.66
2023-11-23T23:53:22.476Z,96787.13
2023-11-23T23:55:50.011Z,96780.19
2023-11-23T23:58:16.762Z,96766.31
